createdAt,value
2019-05-18T00:01:36.929Z,6.83
2019-05-18T00:04:08.333Z,6.45
2019-05-18T00:06:39.783Z,6.87
2019-05-18T00:09:14.204Z,6.87
2019-05-18T00:14:16.283Z,6.50
2019-05-18T00:19:19.182Z,6.42
2019-05-18T00:21:50.633Z,6.85
2019-05-18T00:24:22.100Z,6.12
2019-05-18T00:26:53.745Z,6.53
2019-05-18T00:31:55.719Z,6.80
2019-05-18T00:34:27.060Z,6.75
2019-05-18T00:39:36.311Z,6.65
2019-05-18T00:42:08.281Z,6.53
2019-05-18T00:44:39.525Z,7.10
2019-05-18T00:47:11.173Z,6.30
2019-05-18T00:49:42.824Z,6.95
2019-05-18T00:52:14.792Z,6.85
2019-05-18T00:54:46.143Z,6.45
2019-05-18T00:57:17.706Z,6.67
2019-05-18T00:59:49.555Z,6.25
2019-05-18T01:02:21.306Z,6.83
2019-05-18T01:04:52.758Z,5.95
2019-05-18T01:07:24.311Z,5.87
2019-05-18T01:09:56.065Z,6.55
2019-05-18T01:12:27.730Z,6.67
2019-05-18T01:14:59.278Z,6.53
2019-05-18T01:17:31.132Z,6.72
2019-05-18T01:20:02.486Z,6.87
2019-05-18T01:25:04.971Z,6.45
2019-05-18T01:27:36.425Z,7.10
2019-05-18T01:30:09.311Z,6.33
2019-05-18T01:32:41.067Z,7.17
2019-05-18T01:35:13.740Z,6.30
2019-05-18T01:37:45.095Z,6.45
2019-05-18T01:40:17.470Z,8.43
2019-05-18T01:42:51.470Z,6.37
2019-05-18T01:45:23.437Z,6.75
2019-05-18T01:47:54.783Z,6.83
2019-05-18T01:50:26.341Z,7.08
2019-05-18T01:52:58.816Z,6.25
2019-05-18T01:55:30.465Z,6.17
2019-05-18T01:58:02.031Z,6.22
2019-05-18T02:00:33.780Z,6.80
2019-05-18T02:03:06.557Z,6.60
2019-05-18T02:05:40.369Z,5.90
2019-05-18T02:08:12.118Z,6.62
2019-05-18T02:10:43.672Z,6.10
2019-05-18T02:13:15.428Z,6.42
2019-05-18T02:18:28.654Z,6.55
2019-05-18T02:20:50.403Z,6.40
2019-05-18T02:23:22.256Z,6.83
2019-05-18T02:25:53.807Z,6.87
2019-05-18T02:28:25.360Z,7.50
2019-05-18T02:30:57.114Z,6.42
2019-05-18T02:33:28.569Z,7.55
2019-05-18T02:36:00.334Z,6.70
2019-05-18T02:38:32.592Z,6.25
2019-05-18T02:41:04.250Z,6.40
2019-05-18T02:43:36.106Z,6.53
2019-05-18T02:46:07.661Z,6.42
2019-05-18T02:48:49.445Z,6.35
2019-05-18T02:51:12.208Z,6.12
2019-05-18T02:53:44.264Z,6.65
2019-05-18T02:56:15.818Z,6.92
2019-05-18T03:01:18.410Z,6.65
2019-05-18T03:03:49.963Z,6.70
2019-05-18T03:06:22.133Z,6.30
2019-05-18T03:08:53.575Z,6.30
2019-05-18T03:11:26.072Z,6.00
2019-05-18T03:13:57.813Z,6.58
2019-05-18T03:16:29.667Z,6.67
2019-05-18T03:19:08.197Z,6.15
2019-05-18T03:21:35.025Z,5.65
2019-05-18T03:24:06.787Z,6.53
2019-05-18T03:26:38.540Z,6.50
2019-05-18T03:29:09.888Z,6.33
2019-05-18T03:31:41.546Z,7.15
2019-05-18T03:34:13.303Z,6.45
2019-05-18T03:36:45.266Z,6.62
2019-05-18T03:39:16.748Z,6.47
2019-05-18T03:41:48.679Z,5.67
2019-05-18T03:44:20.353Z,6.45
2019-05-18T03:46:52.199Z,6.50
2019-05-18T03:49:27.526Z,6.60
2019-05-18T03:51:57.265Z,5.67
2019-05-18T03:54:29.204Z,6.33
2019-05-18T03:57:00.859Z,6.55
2019-05-18T03:59:32.412Z,6.53
2019-05-18T04:02:04.261Z,5.60
2019-05-18T04:04:35.827Z,7.45
2019-05-18T04:07:07.787Z,7.50
2019-05-18T04:09:39.439Z,6.05
2019-05-18T04:12:11.007Z,6.47
2019-05-18T04:14:42.444Z,6.72
2019-05-18T04:17:14.917Z,6.30
2019-05-18T04:19:47.586Z,6.87
2019-05-18T04:22:19.152Z,6.87
2019-05-18T04:24:50.813Z,6.28
2019-05-18T04:27:22.470Z,6.75
2019-05-18T04:29:54.368Z,6.90
2019-05-18T04:32:25.972Z,6.67
2019-05-18T04:34:57.441Z,6.35
2019-05-18T04:37:29.181Z,6.70
2019-05-18T04:40:01.665Z,6.35
2019-05-18T04:42:33.216Z,7.58
2019-05-18T04:45:06.237Z,6.10
2019-05-18T04:47:38.165Z,6.78
2019-05-18T04:50:10.610Z,7.05
2019-05-18T04:52:42.195Z,7.20
2019-05-18T04:55:13.844Z,6.78
2019-05-18T04:57:45.294Z,6.97
2019-05-18T05:00:17.458Z,6.55
2019-05-18T05:02:49.124Z,7.83
2019-05-18T05:05:20.868Z,6.30
2019-05-18T05:07:52.730Z,7.22
2019-05-18T05:10:24.384Z,6.00
2019-05-18T05:12:56.864Z,6.60
2019-05-18T05:15:28.612Z,7.12
2019-05-18T05:18:00.066Z,7.03
2019-05-18T05:20:31.928Z,7.22
2019-05-18T05:23:03.379Z,6.47
2019-05-18T05:25:35.131Z,7.15
2019-05-18T05:28:06.789Z,6.87
2019-05-18T05:30:38.550Z,6.40
2019-05-18T05:33:10.206Z,6.55
2019-05-18T05:35:42.060Z,6.60
2019-05-18T05:38:13.622Z,6.37
2019-05-18T05:40:45.058Z,6.55
2019-05-18T05:43:16.714Z,6.65
2019-05-18T05:45:48.384Z,8.03
2019-05-18T05:48:20.138Z,7.03
2019-05-18T05:50:51.742Z,6.25
2019-05-18T05:53:23.742Z,6.45
2019-05-18T05:55:55.296Z,7.37
2019-05-18T05:58:27.056Z,6.72
2019-05-18T06:00:58.615Z,10.40
2019-05-18T06:03:30.490Z,7.78
2019-05-18T06:06:02.341Z,9.48
2019-05-18T06:08:34.088Z,8.70
2019-05-18T06:11:05.741Z,7.37
2019-05-18T06:13:37.207Z,7.10
2019-05-18T06:16:08.848Z,8.93
2019-05-18T06:18:40.310Z,7.55
2019-05-18T06:21:12.051Z,9.25
2019-05-18T06:23:44.117Z,12.40
2019-05-18T06:26:15.470Z,7.08
2019-05-18T06:28:47.332Z,7.83
2019-05-18T06:31:18.983Z,8.33
2019-05-18T06:33:50.946Z,7.67
2019-05-18T06:36:22.801Z,10.90
2019-05-18T06:38:55.694Z,8.65
2019-05-18T06:41:27.255Z,9.38
2019-05-18T06:43:58.799Z,7.83
2019-05-18T06:46:30.754Z,8.53
2019-05-18T06:49:02.408Z,10.08
2019-05-18T06:51:34.380Z,8.75
2019-05-18T06:54:06.324Z,9.25
2019-05-18T06:56:39.366Z,8.50
2019-05-18T06:59:12.060Z,7.45
2019-05-18T07:01:44.172Z,7.85
2019-05-18T07:04:15.716Z,7.08
2019-05-18T07:06:47.479Z,7.42
2019-05-18T07:09:19.025Z,6.40
2019-05-18T07:11:50.678Z,7.62
2019-05-18T07:14:25.636Z,7.60
2019-05-18T07:16:55.531Z,7.95
2019-05-18T07:19:27.493Z,7.80
2019-05-18T07:22:00.794Z,10.78
2019-05-18T07:24:32.442Z,9.35
2019-05-18T07:27:04.509Z,6.80
2019-05-18T07:29:36.263Z,6.62
2019-05-18T07:32:08.139Z,8.53
2019-05-18T07:34:39.981Z,8.35
2019-05-18T07:37:11.428Z,9.55
2019-05-18T07:39:43.191Z,9.60
2019-05-18T07:42:14.658Z,9.25
2019-05-18T07:44:46.090Z,7.80
2019-05-18T07:47:17.563Z,7.92
2019-05-18T07:49:49.398Z,8.33
2019-05-18T07:52:21.155Z,9.55
2019-05-18T07:54:52.618Z,7.42
2019-05-18T07:57:24.264Z,6.90
2019-05-18T07:59:55.915Z,7.67
2019-05-18T08:02:27.709Z,7.78
2019-05-18T08:04:59.432Z,6.90
2019-05-18T08:07:30.880Z,7.83
2019-05-18T08:10:02.432Z,8.45
2019-05-18T08:12:34.293Z,6.72
2019-05-18T08:15:10.226Z,7.95
2019-05-18T08:17:41.923Z,7.33
2019-05-18T08:20:13.760Z,7.60
2019-05-18T08:22:45.319Z,7.47
2019-05-18T08:25:16.873Z,7.25
2019-05-18T08:27:48.521Z,7.97
2019-05-18T08:30:20.384Z,7.10
2019-05-18T08:32:51.934Z,11.03
2019-05-18T08:35:27.012Z,9.68
2019-05-18T08:37:56.678Z,9.15
2019-05-18T08:40:28.435Z,8.98
2019-05-18T08:43:00.099Z,8.35
2019-05-18T08:45:31.545Z,10.50
2019-05-18T08:48:02.946Z,8.40
2019-05-18T08:50:34.761Z,7.22
2019-05-18T08:53:06.849Z,7.65
2019-05-18T08:55:38.192Z,7.30
2019-05-18T08:58:09.678Z,8.08
2019-05-18T09:00:41.387Z,7.83
2019-05-18T09:03:13.128Z,7.05
2019-05-18T09:05:44.779Z,7.55
2019-05-18T09:08:16.648Z,7.55
2019-05-18T09:10:48.250Z,8.75
2019-05-18T09:13:20.057Z,8.23
2019-05-18T09:15:51.911Z,9.95
2019-05-18T09:18:23.623Z,7.15
2019-05-18T09:20:55.527Z,7.95
2019-05-18T09:23:27.396Z,8.53
2019-05-18T09:25:59.258Z,8.63
2019-05-18T09:28:30.908Z,9.23
2019-05-18T09:31:02.456Z,8.30
2019-05-18T09:33:34.220Z,7.83
2019-05-18T09:36:05.876Z,8.28
2019-05-18T09:38:37.536Z,8.83
2019-05-18T09:41:09.389Z,7.70
2019-05-18T09:43:40.944Z,9.45
2019-05-18T09:46:12.398Z,8.18
2019-05-18T09:48:44.353Z,7.58
2019-05-18T09:51:16.111Z,10.25
2019-05-18T09:53:51.533Z,7.90
2019-05-18T09:56:21.466Z,9.93
2019-05-18T09:58:53.329Z,8.75
2019-05-18T10:01:25.458Z,8.90
2019-05-18T10:03:57.764Z,9.23
2019-05-18T10:06:31.443Z,7.70
2019-05-18T10:09:05.062Z,8.68
2019-05-18T10:11:38.598Z,7.20
2019-05-18T10:14:11.759Z,7.87
2019-05-18T10:16:43.454Z,8.35
2019-05-18T10:19:15.164Z,9.03
2019-05-18T10:21:46.618Z,8.58
2019-05-18T10:24:18.576Z,9.15
2019-05-18T10:26:50.333Z,7.70
2019-05-18T10:29:21.993Z,9.05
2019-05-18T10:31:53.598Z,7.45
2019-05-18T10:34:25.200Z,8.10
2019-05-18T10:36:56.852Z,8.83
2019-05-18T10:39:28.612Z,8.10
2019-05-18T10:42:00.168Z,7.97
2019-05-18T10:44:31.822Z,7.45
2019-05-18T10:47:03.783Z,7.60
2019-05-18T10:49:35.334Z,7.95
2019-05-18T10:52:07.402Z,7.83
2019-05-18T10:54:39.056Z,8.03
2019-05-18T10:57:11.326Z,7.58
2019-05-18T10:59:42.669Z,7.33
2019-05-18T11:02:14.846Z,8.98
2019-05-18T11:04:46.492Z,7.35
2019-05-18T11:07:18.250Z,9.00
2019-05-18T11:09:51.854Z,7.33
2019-05-18T11:12:23.715Z,7.33
2019-05-18T11:14:55.566Z,7.62
2019-05-18T11:17:27.741Z,8.53
2019-05-18T11:19:59.595Z,7.22
2019-05-18T11:22:31.557Z,8.10
2019-05-18T11:25:03.624Z,7.03
2019-05-18T11:27:35.079Z,7.67
2019-05-18T11:30:08.127Z,7.72
2019-05-18T11:32:40.432Z,7.35
2019-05-18T11:35:12.407Z,8.38
2019-05-18T11:37:44.260Z,8.03
2019-05-18T11:40:17.161Z,7.37
2019-05-18T11:42:49.097Z,8.03
2019-05-18T11:45:22.587Z,8.25
2019-05-18T11:47:54.049Z,7.33
2019-05-18T11:50:26.215Z,7.70
2019-05-18T11:52:58.010Z,7.00
2019-05-18T11:55:29.940Z,7.30
2019-05-18T11:58:01.894Z,7.00
2019-05-18T12:00:33.551Z,7.10
2019-05-18T12:03:05.935Z,6.65
2019-05-18T12:05:37.679Z,7.50
2019-05-18T12:08:09.746Z,6.78
2019-05-18T12:10:42.940Z,6.70
2019-05-18T12:13:14.735Z,6.45
2019-05-18T12:15:46.600Z,7.30
2019-05-18T12:18:18.071Z,9.13
2019-05-18T12:20:49.693Z,7.83
2019-05-18T12:23:21.825Z,6.87
2019-05-18T12:25:54.913Z,7.58
2019-05-18T12:28:26.874Z,7.22
2019-05-18T12:31:01.987Z,7.12
2019-05-18T12:33:32.570Z,6.90
2019-05-18T12:36:06.272Z,7.62
2019-05-18T12:38:38.111Z,7.17
2019-05-18T12:41:10.374Z,8.25
2019-05-18T12:43:42.234Z,7.83
2019-05-18T12:46:14.169Z,8.28
2019-05-18T12:48:46.260Z,7.60
2019-05-18T12:51:18.016Z,6.42
2019-05-18T12:53:50.327Z,7.70
2019-05-18T12:56:21.940Z,7.80
2019-05-18T12:58:55.538Z,10.50
2019-05-18T13:01:27.910Z,7.47
2019-05-18T13:03:59.683Z,7.33
2019-05-18T13:06:31.432Z,7.05
2019-05-18T13:09:03.081Z,7.15
2019-05-18T13:11:35.930Z,6.80
2019-05-18T13:14:07.336Z,7.70
2019-05-18T13:16:38.886Z,7.62
2019-05-18T13:19:10.395Z,7.55
2019-05-18T13:21:41.881Z,7.35
2019-05-18T13:24:13.951Z,7.33
2019-05-18T13:26:46.006Z,6.15
2019-05-18T13:29:18.578Z,6.80
2019-05-18T13:31:50.641Z,6.95
2019-05-18T13:34:21.997Z,9.75
2019-05-18T13:36:53.442Z,7.28
2019-05-18T13:39:25.305Z,7.15
2019-05-18T13:41:57.159Z,6.90
2019-05-18T13:44:28.917Z,6.97
2019-05-18T13:47:00.876Z,8.10
2019-05-18T13:49:32.853Z,7.70
2019-05-18T13:52:05.212Z,7.67
2019-05-18T13:54:37.070Z,7.78
2019-05-18T13:57:08.726Z,7.80
2019-05-18T13:59:40.595Z,8.10
2019-05-18T14:02:12.822Z,8.18
2019-05-18T15:55:10.340Z,6.78
2019-05-18T15:57:41.995Z,6.58
2019-05-18T16:00:14.366Z,7.20
2019-05-18T16:02:45.951Z,6.78
2019-05-18T16:05:17.766Z,6.95
2019-05-18T16:07:49.737Z,7.08
2019-05-18T16:10:22.863Z,7.30
2019-05-18T16:12:54.881Z,6.92
2019-05-18T16:15:26.435Z,7.10
2019-05-18T16:17:58.093Z,8.25
2019-05-18T16:20:29.946Z,7.17
2019-05-18T16:23:01.758Z,9.40
2019-05-18T16:25:33.469Z,7.28
2019-05-18T16:28:05.120Z,7.45
2019-05-18T16:30:37.078Z,7.30
2019-05-18T16:33:08.835Z,6.67
2019-05-18T16:35:40.593Z,7.25
2019-05-18T16:38:12.045Z,7.17
2019-05-18T16:40:44.009Z,7.30
2019-05-18T16:43:15.562Z,8.05
2019-05-18T16:45:47.013Z,8.25
2019-05-18T16:48:19.281Z,8.28
2019-05-18T16:50:51.135Z,7.22
2019-05-18T16:53:23.014Z,9.90
2019-05-18T16:55:54.666Z,12.85
2019-05-18T16:58:26.324Z,7.78
2019-05-18T17:00:57.980Z,6.58
2019-05-18T17:03:30.132Z,7.42
2019-05-18T17:06:02.104Z,8.48
2019-05-18T17:08:33.546Z,7.12
2019-05-18T17:11:05.311Z,6.65
2019-05-18T17:13:37.278Z,16.48
2019-05-18T17:16:08.920Z,6.60
2019-05-18T17:18:40.982Z,8.65
2019-05-18T17:21:12.637Z,6.80
2019-05-18T17:23:44.401Z,8.93
2019-05-18T17:26:16.262Z,10.60
2019-05-18T17:28:48.316Z,8.73
2019-05-18T17:31:20.080Z,7.65
2019-05-18T17:33:51.829Z,9.15
2019-05-18T17:36:23.486Z,8.23
2019-05-18T17:38:55.060Z,6.83
2019-05-18T17:41:26.703Z,7.65
2019-05-18T17:43:58.454Z,7.05
2019-05-18T17:46:30.002Z,9.70
2019-05-18T17:49:01.575Z,8.38
2019-05-18T17:51:33.682Z,8.90
2019-05-18T17:54:05.610Z,12.07
2019-05-18T17:56:37.343Z,11.57
2019-05-18T17:59:08.999Z,12.45
2019-05-18T18:01:40.975Z,12.82
2019-05-18T18:04:13.230Z,15.38
2019-05-18T18:06:44.784Z,12.20
2019-05-18T18:09:16.440Z,10.82
2019-05-18T18:11:48.094Z,10.40
2019-05-18T18:14:20.052Z,12.18
2019-05-18T18:16:52.227Z,10.48
2019-05-18T18:19:23.975Z,10.75
2019-05-18T18:21:55.834Z,9.63
2019-05-18T18:24:27.291Z,9.10
2019-05-18T18:27:00.701Z,10.48
2019-05-18T18:29:32.547Z,9.78
2019-05-18T18:32:04.414Z,9.38
2019-05-18T18:34:36.164Z,10.93
2019-05-18T18:37:07.823Z,10.45
2019-05-18T18:39:39.381Z,10.43
2019-05-18T18:42:11.537Z,10.80
2019-05-18T18:44:43.296Z,11.12
2019-05-18T18:47:15.154Z,11.48
2019-05-18T18:49:47.013Z,13.10
2019-05-18T18:52:18.784Z,13.75
2019-05-18T18:54:50.342Z,15.78
2019-05-18T18:57:22.293Z,22.98
2019-05-18T18:59:56.856Z,14.70
2019-05-18T19:02:27.240Z,14.25
2019-05-18T19:04:58.887Z,15.75
2019-05-18T19:07:31.469Z,13.60
2019-05-18T19:10:03.344Z,13.43
2019-05-18T19:12:35.800Z,11.93
2019-05-18T19:15:09.405Z,11.08
2019-05-18T19:17:41.067Z,11.78
2019-05-18T19:20:13.192Z,10.90
2019-05-18T19:22:44.673Z,10.32
2019-05-18T19:27:54.473Z,9.20
2019-05-18T19:30:20.661Z,10.40
2019-05-18T19:32:52.214Z,8.78
2019-05-18T19:35:23.867Z,8.03
2019-05-18T19:37:56.163Z,8.48
2019-05-18T19:40:27.687Z,7.92
2019-05-18T19:42:59.859Z,7.08
2019-05-18T19:45:31.412Z,7.17
2019-05-18T19:48:03.167Z,6.95
2019-05-18T19:50:34.924Z,6.40
2019-05-18T19:53:07.002Z,6.65
2019-05-18T19:55:38.651Z,6.92
2019-05-18T19:58:10.398Z,9.35
2019-05-18T20:00:42.462Z,6.83
2019-05-18T20:03:14.227Z,8.15
2019-05-18T20:05:45.776Z,7.53
2019-05-18T20:08:17.534Z,6.37
2019-05-18T20:10:49.217Z,6.50
2019-05-18T20:13:21.247Z,6.37
2019-05-18T20:15:52.630Z,5.92
2019-05-18T20:18:24.563Z,6.30
2019-05-18T20:20:56.417Z,6.00
2019-05-18T20:23:28.075Z,6.35
2019-05-18T20:25:59.935Z,5.55
2019-05-18T20:28:31.799Z,6.12
2019-05-18T20:31:03.945Z,5.90
2019-05-18T20:33:35.523Z,5.70
2019-05-18T20:36:07.472Z,5.33
2019-05-18T20:38:39.439Z,5.65
2019-05-18T20:41:11.303Z,5.83
2019-05-18T20:43:43.162Z,5.50
2019-05-18T20:46:14.831Z,5.85
2019-05-18T20:48:46.674Z,5.15
2019-05-18T20:51:18.531Z,5.20
2019-05-18T20:53:50.629Z,4.90
2019-05-18T20:56:22.469Z,5.42
2019-05-18T20:58:54.420Z,5.30
2019-05-18T21:01:27.107Z,5.03
2019-05-18T21:03:59.169Z,5.30
2019-05-18T21:06:30.819Z,5.30
2019-05-18T21:09:04.524Z,5.17
2019-05-18T21:11:37.098Z,5.40
2019-05-18T21:14:08.751Z,4.50
2019-05-18T21:16:40.613Z,4.60
2019-05-18T21:19:12.468Z,4.67
2019-05-18T21:21:44.021Z,4.62
2019-05-18T21:24:16.702Z,5.05
2019-05-18T21:26:48.360Z,5.12
2019-05-18T21:29:20.223Z,5.28
2019-05-18T21:31:51.876Z,5.12
2019-05-18T21:34:23.833Z,5.20
2019-05-18T21:36:55.693Z,4.72
2019-05-18T21:39:27.451Z,4.92
2019-05-18T21:41:59.314Z,4.80
2019-05-18T21:44:30.862Z,4.95
2019-05-18T21:47:02.625Z,4.75
2019-05-18T21:49:34.482Z,4.47
2019-05-18T21:52:06.448Z,5.15
2019-05-18T21:54:38.105Z,4.50
2019-05-18T21:59:40.082Z,4.75
2019-05-18T22:02:12.549Z,8.13
2019-05-18T22:04:44.000Z,4.40
2019-05-18T22:07:15.756Z,4.33
2019-05-18T22:09:47.523Z,4.58
2019-05-18T22:12:19.174Z,4.60
2019-05-18T22:14:51.038Z,4.20
2019-05-18T22:17:22.685Z,4.28
2019-05-18T22:19:54.341Z,5.15
2019-05-18T22:22:26.308Z,4.35
2019-05-18T22:24:57.858Z,4.00
2019-05-18T22:27:29.824Z,4.80
2019-05-18T22:30:01.577Z,3.90
2019-05-18T22:32:33.645Z,4.33
2019-05-18T22:35:06.418Z,4.55
2019-05-18T22:37:38.384Z,4.20
2019-05-18T22:40:10.550Z,4.50
2019-05-18T22:42:42.102Z,4.40
2019-05-18T22:45:14.068Z,4.10
2019-05-18T22:47:46.028Z,4.30
2019-05-18T22:50:18.205Z,4.47
2019-05-18T22:52:50.607Z,3.87
2019-05-18T22:55:22.637Z,4.10
2019-05-18T22:57:54.390Z,3.87
2019-05-18T23:00:25.944Z,3.55
2019-05-18T23:02:58.369Z,3.80
2019-05-18T23:05:30.478Z,3.70
2019-05-18T23:08:02.348Z,3.90
2019-05-18T23:10:34.103Z,4.03
2019-05-18T23:13:05.751Z,3.50
2019-05-18T23:18:07.730Z,3.90
2019-05-18T23:20:39.490Z,4.17
2019-05-18T23:23:11.861Z,4.25
2019-05-18T23:25:43.721Z,3.42
2019-05-18T23:28:15.373Z,3.62
2019-05-18T23:30:47.034Z,4.05
2019-05-18T23:33:18.585Z,4.35
2019-05-18T23:35:50.137Z,3.90
2019-05-18T23:38:21.693Z,3.95
2019-05-18T23:40:53.342Z,3.95
2019-05-18T23:45:55.788Z,3.75
2019-05-18T23:48:27.182Z,3.77
2019-05-18T23:50:58.943Z,3.87
2019-05-18T23:53:30.791Z,3.85
2019-05-18T23:56:02.507Z,3.58
2019-05-18T23:58:34.206Z,3.25
